createdAt,value
2017-08-06T00:00:03.354Z,70.16
2017-08-06T00:05:03.402Z,70.03
2017-08-06T00:10:02.769Z,69.65
2017-08-06T00:15:03.111Z,69.08
2017-08-06T00:20:02.600Z,68.79
2017-08-06T00:25:02.923Z,68.22
2017-08-06T00:30:03.353Z,68.03
2017-08-06T00:35:02.674Z,67.55
2017-08-06T00:40:03.006Z,67.46
2017-08-06T00:45:03.337Z,67.07
2017-08-06T00:50:02.725Z,66.56
2017-08-06T00:55:02.968Z,66.18
2017-08-06T01:00:03.359Z,65.89
2017-08-06T01:05:02.836Z,65.7
2017-08-06T01:10:03.350Z,65.13
2017-08-06T01:15:02.680Z,64.94
2017-08-06T01:20:03.202Z,64.47
2017-08-06T01:25:02.689Z,64.37
2017-08-06T01:30:03.096Z,63.99
2017-08-06T01:35:03.433Z,63.8
2017-08-06T01:40:02.876Z,63.42
2017-08-06T01:45:03.362Z,63.32
2017-08-06T01:50:02.801Z,63.04
2017-08-06T01:55:03.279Z,62.84
2017-08-06T02:00:03.568Z,62.56
2017-08-06T02:05:02.854Z,62.24
2017-08-06T02:10:03.378Z,62.15
2017-08-06T02:15:02.664Z,62.05
2017-08-06T02:20:03.064Z,61.96
2017-08-06T02:25:03.352Z,61.96
2017-08-06T02:30:02.630Z,61.86
2017-08-06T02:35:02.920Z,61.67
2017-08-06T02:40:03.290Z,61.57
2017-08-06T02:45:02.603Z,61.48
2017-08-06T02:50:02.972Z,61.48
2017-08-06T02:55:03.474Z,61.38
2017-08-06T03:00:02.786Z,61.38
2017-08-06T03:05:03.080Z,61.48
2017-08-06T03:10:03.614Z,61.38
2017-08-06T03:15:03.013Z,61.48
2017-08-06T03:20:03.373Z,61.57
2017-08-06T03:25:02.745Z,61.57
2017-08-06T03:30:03.056Z,61.57
2017-08-06T03:35:03.423Z,61.76
2017-08-06T03:40:02.931Z,61.76
2017-08-06T03:45:03.390Z,61.86
2017-08-06T03:50:02.620Z,62.12
2017-08-06T03:55:03.123Z,62.02
2017-08-06T04:00:03.817Z,62.12
2017-08-06T04:05:03.305Z,62.21
2017-08-06T04:10:02.841Z,62.12
2017-08-06T04:15:03.689Z,62.21
2017-08-06T04:20:03.253Z,62.21
2017-08-06T04:25:02.692Z,62.4
2017-08-06T04:30:03.560Z,62.59
2017-08-06T04:35:02.973Z,62.4
2017-08-06T04:40:03.478Z,62.52
2017-08-06T04:45:02.801Z,62.62
2017-08-06T04:50:03.400Z,62.91
2017-08-06T04:55:02.709Z,62.91
2017-08-06T05:00:03.242Z,62.52
2017-08-06T05:05:02.675Z,61.86
2017-08-06T05:10:03.093Z,61.41
2017-08-06T05:15:02.631Z,60.84
2017-08-06T05:20:03.118Z,60.36
2017-08-06T05:25:02.663Z,59.99
2017-08-06T05:30:03.192Z,59.34
2017-08-06T05:35:02.656Z,59.06
2017-08-06T05:40:03.249Z,58.87
2017-08-06T05:45:02.606Z,58.7
2017-08-06T05:50:03.148Z,58.42
2017-08-06T05:55:02.615Z,58.42
2017-08-06T06:00:03.053Z,59.02
2017-08-06T06:05:03.498Z,58.54
2017-08-06T06:10:02.956Z,59.02
2017-08-06T06:15:03.282Z,59.53
2017-08-06T06:20:02.874Z,59.66
2017-08-06T06:25:03.374Z,61.19
2017-08-06T06:30:02.902Z,61.98
2017-08-06T06:35:03.430Z,65.45
2017-08-06T06:40:03.018Z,68.23
2017-08-06T06:45:02.623Z,67.02
2017-08-06T06:50:02.883Z,68.17
2017-08-06T06:55:03.432Z,71.27
2017-08-06T07:00:02.817Z,71.69
2017-08-06T07:05:03.142Z,71.59
2017-08-06T07:10:02.700Z,77.29
2017-08-06T07:15:03.258Z,77
2017-08-06T07:20:03.555Z,78.13
2017-08-06T07:25:02.988Z,79.76
2017-08-06T07:30:03.469Z,83.07
2017-08-06T07:35:02.789Z,84.89
2017-08-06T07:40:03.215Z,85.03
2017-08-06T07:45:03.580Z,90.99
2017-08-06T07:50:03.120Z,85.94
2017-08-06T07:55:03.623Z,92.43
2017-08-06T08:00:03.128Z,94.97
2017-08-06T08:05:03.508Z,96.85
2017-08-06T08:10:02.881Z,95.69
2017-08-06T08:15:03.393Z,96.46
2017-08-06T08:20:02.902Z,95.6
2017-08-06T08:25:03.312Z,96.7
2017-08-06T08:30:02.698Z,98.29
2017-08-06T08:35:03.203Z,99.11
2017-08-06T08:40:02.744Z,99.5
2017-08-06T08:45:03.189Z,99.99
2017-08-06T08:50:02.760Z,99.99
2017-08-06T08:55:03.193Z,99.99
2017-08-06T09:00:03.576Z,99.99
2017-08-06T09:05:02.976Z,99.99
2017-08-06T09:10:03.478Z,99.99
2017-08-06T09:15:02.899Z,99.99
2017-08-06T09:20:03.393Z,99.99
2017-08-06T09:25:02.866Z,99.99
2017-08-06T09:30:03.349Z,99.99
2017-08-06T09:35:02.849Z,99.99
2017-08-06T09:40:03.253Z,99.99
2017-08-06T09:45:02.743Z,99.99
2017-08-06T09:50:03.066Z,99.99
2017-08-06T09:55:03.552Z,99.99
2017-08-06T10:00:02.942Z,98.93
2017-08-06T10:05:03.376Z,94.48
2017-08-06T10:10:02.960Z,94.18
2017-08-06T10:15:03.575Z,88.2
2017-08-06T10:20:03.032Z,91.39
2017-08-06T10:25:03.428Z,87.13
2017-08-06T10:30:02.742Z,78.21
2017-08-06T10:35:03.203Z,75.89
2017-08-06T10:40:02.749Z,73.85
2017-08-06T10:45:03.122Z,75.34
2017-08-06T10:50:02.687Z,77.42
2017-08-06T10:55:03.058Z,72.67
2017-08-06T11:00:03.542Z,68.99
2017-08-06T11:05:02.887Z,70.96
2017-08-06T11:10:03.300Z,67.79
2017-08-06T11:15:02.703Z,70.15
2017-08-06T11:20:03.366Z,69.24
2017-08-06T11:25:02.849Z,69.76
2017-08-06T11:30:03.363Z,69.34
2017-08-06T11:35:02.692Z,67.21
2017-08-06T11:40:03.116Z,67.4
2017-08-06T11:45:03.591Z,68.53
2017-08-06T11:50:03.338Z,68.47
2017-08-06T11:55:02.776Z,68.63
2017-08-06T12:00:03.323Z,67.88
2017-08-06T12:05:02.741Z,70.01
2017-08-06T12:10:03.395Z,67.69
2017-08-06T12:15:02.769Z,64.53
2017-08-06T12:20:03.123Z,64.78
2017-08-06T12:25:02.581Z,64.33
2017-08-06T12:30:03.020Z,65.47
2017-08-06T12:35:03.332Z,66.02
2017-08-06T12:40:02.692Z,65.2
2017-08-06T12:45:03.054Z,64.85
2017-08-06T12:50:03.486Z,64.95
2017-08-06T12:55:02.950Z,64.78
2017-08-06T13:00:03.437Z,62.97
2017-08-06T13:05:02.966Z,59.22
2017-08-06T13:10:03.508Z,60.06
2017-08-06T13:15:03.016Z,61.22
2017-08-06T13:20:03.384Z,62.49
2017-08-06T13:25:02.866Z,62.16
2017-08-06T13:30:03.353Z,62.55
2017-08-06T13:35:02.781Z,62.62
2017-08-06T13:40:03.238Z,62.26
2017-08-06T13:45:03.562Z,62.26
2017-08-06T13:50:02.996Z,60.74
2017-08-06T13:55:03.299Z,61.81
2017-08-06T14:00:02.653Z,61.94
2017-08-06T14:05:02.969Z,61.71
2017-08-06T14:10:03.499Z,62.71
2017-08-06T14:15:02.837Z,61.97
2017-08-06T14:20:03.237Z,60.78
2017-08-06T14:25:02.615Z,63.56
2017-08-06T14:30:03.084Z,64.01
2017-08-06T14:35:02.653Z,64.79
2017-08-06T14:40:03.093Z,65.56
2017-08-06T14:45:03.537Z,66.05
2017-08-06T14:50:03.073Z,65.24
2017-08-06T14:55:03.587Z,63.68
2017-08-06T15:00:03.045Z,62.91
2017-08-06T15:05:03.501Z,63.43
2017-08-06T15:10:02.945Z,63.72
2017-08-06T15:15:03.320Z,63.69
2017-08-06T15:20:02.768Z,63.92
2017-08-06T15:25:03.131Z,66.05
2017-08-06T15:30:02.625Z,67.27
2017-08-06T15:35:03.258Z,67.46
2017-08-06T15:40:02.633Z,67.98
2017-08-06T15:45:02.983Z,66.56
2017-08-06T15:50:03.537Z,64.92
2017-08-06T15:55:02.902Z,64.72
2017-08-06T16:00:03.246Z,65.11
2017-08-06T16:05:02.682Z,64.82
2017-08-06T16:10:03.109Z,64.82
2017-08-06T16:15:02.603Z,65.88
2017-08-06T16:20:03.046Z,67.82
2017-08-06T16:25:03.583Z,68.3
2017-08-06T16:30:02.910Z,67.94
2017-08-06T16:35:03.413Z,68.17
2017-08-06T16:40:02.889Z,68.17
2017-08-06T16:45:03.363Z,67.27
2017-08-06T16:50:02.750Z,68.1
2017-08-06T16:55:03.252Z,68.4
2017-08-06T17:00:03.011Z,68.78
2017-08-06T17:05:03.538Z,68.88
2017-08-06T17:10:02.899Z,69.07
2017-08-06T17:15:03.388Z,68.75
2017-08-06T17:20:02.820Z,69.42
2017-08-06T17:25:03.360Z,70.54
2017-08-06T17:30:02.890Z,71.7
2017-08-06T17:35:03.391Z,71.12
2017-08-06T17:40:02.757Z,70.84
2017-08-06T17:45:03.313Z,71
2017-08-06T17:50:02.685Z,72.34
2017-08-06T17:55:03.162Z,72.63
2017-08-06T18:00:02.655Z,73.57
2017-08-06T18:05:03.178Z,74.14
2017-08-06T18:10:03.574Z,74.91
2017-08-06T18:15:02.918Z,75.4
2017-08-06T18:20:03.460Z,75.78
2017-08-06T18:25:02.729Z,76.23
2017-08-06T18:30:03.197Z,77.58
2017-08-06T18:35:02.653Z,78.54
2017-08-06T18:40:03.052Z,79.46
2017-08-06T18:45:03.580Z,80.33
2017-08-06T18:50:02.869Z,81.83
2017-08-06T18:55:03.220Z,84.05
2017-08-06T19:00:03.554Z,87.76
2017-08-06T19:05:02.932Z,92.95
2017-08-06T19:10:03.419Z,95.98
2017-08-06T19:15:02.715Z,98.19
2017-08-06T19:20:03.203Z,99.99
2017-08-06T19:25:02.651Z,99.99
2017-08-06T19:30:03.179Z,99.99
2017-08-06T19:35:02.731Z,99.99
2017-08-06T19:40:03.277Z,99.99
2017-08-06T19:45:02.774Z,99.99
2017-08-06T19:50:03.304Z,99.99
2017-08-06T19:55:02.701Z,99.99
2017-08-06T20:00:03.223Z,99.99
2017-08-06T20:05:02.770Z,99.99
2017-08-06T20:10:03.208Z,99.82
2017-08-06T20:15:03.490Z,99.05
2017-08-06T20:20:02.883Z,98.91
2017-08-06T20:25:03.370Z,98.53
2017-08-06T20:30:02.825Z,98.05
2017-08-06T20:35:03.256Z,97.33
2017-08-06T20:40:02.794Z,96.66
2017-08-06T20:45:03.279Z,96.61
2017-08-06T20:50:02.653Z,95.94
2017-08-06T20:55:02.940Z,95.17
2017-08-06T21:00:03.638Z,94.89
2017-08-06T21:05:03.177Z,94.5
2017-08-06T21:10:02.605Z,93.88
2017-08-06T21:15:03.144Z,93.11
2017-08-06T21:20:03.511Z,92.15
2017-08-06T21:25:02.915Z,91.39
2017-08-06T21:30:03.365Z,91.25
2017-08-06T21:35:02.850Z,90.58
2017-08-06T21:40:03.336Z,90.19
2017-08-06T21:45:02.780Z,89.9
2017-08-06T21:50:03.243Z,89.48
2017-08-06T21:55:02.702Z,89.19
2017-08-06T22:00:03.184Z,89
2017-08-06T22:05:03.489Z,88.04
2017-08-06T22:10:02.885Z,87.37
2017-08-06T22:15:03.192Z,86.76
2017-08-06T22:20:02.755Z,86.18
2017-08-06T22:25:03.178Z,85.51
2017-08-06T22:30:02.627Z,85.61
2017-08-06T22:35:03.079Z,84.46
2017-08-06T22:40:02.580Z,83.94
2017-08-06T22:45:03.052Z,84.03
2017-08-06T22:50:03.628Z,83.75
2017-08-06T22:55:02.940Z,82.41
2017-08-06T23:00:03.572Z,81.99
2017-08-06T23:05:02.883Z,81.22
2017-08-06T23:10:03.503Z,80.27
2017-08-06T23:15:02.808Z,79.79
2017-08-06T23:20:03.369Z,78.64
2017-08-06T23:25:02.870Z,78.51
2017-08-06T23:30:03.266Z,78.22
2017-08-06T23:35:02.611Z,77.45
2017-08-06T23:40:03.009Z,76.88
2017-08-06T23:45:03.422Z,76.6
2017-08-06T23:50:02.723Z,76.12
2017-08-06T23:55:03.068Z,75.74
